Time;durP1;ratioP1;P1;durP2;ratioP2;P2;SDS_P1;SDS_P2;PMS_P1;PMS_P2;Temp;Humidity;BMP_temperature;BMP_pressure;BME280_temperature;BME280_humidity;BME280_pressure;Samples;Min_cycle;Max_cycle;Signal;HPM_P1;HPM_P2
2023/05/13 00:00:11;;;;;;;11.00;7.72;;;;;;;14.08;95.00;101944.88;5091744;28;20020;-70
2023/05/13 00:02:36;;;;;;;15.27;7.78;;;;;;;14.06;94.80;101938.03;5091697;28;20093;-70
2023/05/13 00:05:02;;;;;;;12.00;7.72;;;;;;;14.01;94.05;101944.81;5091873;28;20031;-70
2023/05/13 00:07:27;;;;;;;12.65;7.70;;;;;;;14.02;93.30;101941.13;5091757;28;20100;-70
2023/05/13 00:09:53;;;;;;;11.80;7.72;;;;;;;13.98;93.35;101933.63;5090146;28;20376;-70
2023/05/13 00:12:19;;;;;;;11.43;8.20;;;;;;;13.96;93.37;101928.47;5090279;28;20067;-70
2023/05/13 00:14:45;;;;;;;9.98;6.97;;;;;;;13.95;92.99;101936.72;5091446;28;20055;-70
2023/05/13 00:17:10;;;;;;;11.55;7.20;;;;;;;13.93;93.00;101933.38;5091414;28;20028;-70
2023/05/13 00:19:35;;;;;;;10.68;7.15;;;;;;;13.90;93.10;101931.09;5089935;28;20123;-70
2023/05/13 00:22:01;;;;;;;10.38;6.30;;;;;;;13.88;92.57;101933.94;5091474;28;20039;-70
2023/05/13 00:24:26;;;;;;;11.52;7.75;;;;;;;13.87;92.63;101932.31;5091415;28;20032;-70
2023/05/13 00:26:52;;;;;;;14.50;8.50;;;;;;;13.82;92.72;101922.16;5091365;28;20047;-70
2023/05/13 00:29:17;;;;;;;9.75;6.72;;;;;;;13.82;92.46;101929.38;5089981;28;20039;-70
2023/05/13 00:31:42;;;;;;;12.90;7.57;;;;;;;13.78;92.84;101936.13;5091368;28;20446;-70
2023/05/13 00:34:08;;;;;;;11.98;7.63;;;;;;;13.76;93.07;101930.97;5091241;28;20020;-70
2023/05/13 00:36:33;;;;;;;14.65;7.55;;;;;;;13.74;92.07;101935.69;5091279;28;20035;-70
2023/05/13 00:38:59;;;;;;;12.10;7.20;;;;;;;13.73;92.42;101934.03;5091234;28;20157;-70
2023/05/13 00:41:24;;;;;;;10.20;7.20;;;;;;;13.72;92.71;101931.53;5091090;28;20506;-70
2023/05/13 00:43:54;;;;;;;11.77;7.25;;;;;;;13.65;92.92;101931.47;5090936;28;20028;-70
2023/05/13 00:46:19;;;;;;;11.82;7.70;;;;;;;13.62;93.30;101926.47;5090986;28;20023;-70
2023/05/13 00:48:44;;;;;;;10.60;7.38;;;;;;;13.61;93.74;101942.75;5089695;28;20035;-70
2023/05/13 00:51:10;;;;;;;10.93;6.80;;;;;;;13.52;95.01;101942.06;5090550;28;20539;-70
2023/05/13 00:53:37;;;;;;;10.07;6.90;;;;;;;13.47;96.73;101947.16;5089454;28;20028;-70
2023/05/13 00:56:03;;;;;;;15.02;7.80;;;;;;;13.38;97.07;101949.09;5090087;28;20096;-70
2023/05/13 00:58:29;;;;;;;11.63;7.47;;;;;;;13.30;97.35;101944.69;5090726;28;20134;-70
2023/05/13 01:01:28;;;;;;;11.32;7.75;;;;;;;13.30;97.08;101946.53;5090680;28;20027;-70
2023/05/13 01:04:08;;;;;;;14.20;8.68;;;;;;;13.24;97.19;101939.22;5090527;28;20028;-70
2023/05/13 01:06:59;;;;;;;11.98;7.75;;;;;;;13.19;97.80;101938.94;5091200;28;20506;-70
2023/05/13 01:09:52;;;;;;;12.75;8.73;;;;;;;13.11;98.90;101929.16;5090595;28;20036;-70
2023/05/13 01:12:35;;;;;;;13.80;8.15;;;;;;;13.06;99.18;101929.72;5090494;28;20135;-70
2023/05/13 01:15:12;;;;;;;15.68;8.93;;;;;;;13.00;100.00;101932.34;5090384;28;20481;-70
2023/05/13 01:18:09;;;;;;;11.60;7.97;;;;;;;12.96;100.00;101931.03;5090222;28;20024;-70
2023/05/13 01:20:39;;;;;;;15.95;8.93;;;;;;;12.83;100.00;101934.34;5090389;28;20024;-70
2023/05/13 01:23:05;;;;;;;14.82;10.18;;;;;;;12.80;100.00;101932.88;5090184;28;20024;-70
2023/05/13 01:25:31;;;;;;;13.35;8.73;;;;;;;12.75;100.00;101937.13;5090248;28;20593;-70
2023/05/13 01:27:56;;;;;;;15.82;9.95;;;;;;;12.72;100.00;101936.47;5090165;28;20118;-70
2023/05/13 01:30:22;;;;;;;14.05;10.00;;;;;;;12.68;100.00;101937.00;5090031;28;20405;-70
2023/05/13 01:32:49;;;;;;;13.35;8.65;;;;;;;12.65;100.00;101932.88;5090038;28;20522;-70
2023/05/13 01:35:16;;;;;;;13.23;8.98;;;;;;;12.62;99.96;101935.91;5090077;28;20032;-70
2023/05/13 01:37:42;;;;;;;23.98;8.85;;;;;;;12.62;99.36;101935.09;5090031;28;20092;-70
2023/05/13 01:40:08;;;;;;;13.30;8.57;;;;;;;12.65;98.48;101937.38;5089955;28;20463;-70
2023/05/13 01:42:34;;;;;;;12.30;7.18;;;;;;;12.64;97.84;101941.91;5089819;28;20057;-70
2023/05/13 01:44:59;;;;;;;15.27;9.07;;;;;;;12.63;98.51;101928.72;5090043;28;20036;-70
2023/05/13 01:47:25;;;;;;;10.48;7.32;;;;;;;12.59;98.37;101940.81;5089849;28;20058;-70
2023/05/13 01:49:51;;;;;;;13.40;8.45;;;;;;;12.57;98.02;101935.63;5105043;28;20475;-70
2023/05/13 01:52:17;;;;;;;18.75;9.90;;;;;;;12.54;99.07;101933.31;5089824;28;20031;-70
2023/05/13 01:54:42;;;;;;;14.18;8.63;;;;;;;12.49;99.52;101938.38;5089669;28;20475;-70
2023/05/13 01:57:07;;;;;;;12.10;8.27;;;;;;;12.45;99.62;101942.47;5089709;28;20663;-70
2023/05/13 01:59:32;;;;;;;11.98;8.32;;;;;;;12.43;99.48;101934.59;5089499;28;20138;-70
2023/05/13 02:01:58;;;;;;;14.30;8.73;;;;;;;12.41;98.93;101941.16;5089484;28;20067;-70
2023/05/13 02:04:23;;;;;;;17.67;9.63;;;;;;;12.39;98.78;101943.16;5089665;28;20031;-70
2023/05/13 02:06:49;;;;;;;13.90;9.07;;;;;;;12.36;98.82;101943.53;5089512;28;20147;-70
2023/05/13 02:09:15;;;;;;;14.95;8.00;;;;;;;12.26;98.34;101928.59;5088796;28;20065;-70
2023/05/13 02:11:40;;;;;;;14.00;7.65;;;;;;;12.27;99.35;101943.63;5089286;28;20051;-70
2023/05/13 02:14:05;;;;;;;15.77;8.32;;;;;;;12.26;97.82;101947.31;5089562;28;20036;-71
2023/05/13 02:16:31;;;;;;;13.20;8.60;;;;;;;12.17;99.07;101944.88;5089422;28;20040;-71
2023/05/13 02:18:56;;;;;;;12.77;7.72;;;;;;;12.10;98.17;101944.75;5089420;28;20458;-71
2023/05/13 02:21:22;;;;;;;13.18;8.02;;;;;;;12.15;98.54;101949.56;5089240;28;20032;-71
2023/05/13 02:23:47;;;;;;;12.68;7.20;;;;;;;12.13;97.52;101939.06;5089233;28;20059;-71
2023/05/13 02:26:12;;;;;;;13.43;7.63;;;;;;;12.11;98.25;101941.09;5089406;28;20077;-71
2023/05/13 02:28:38;;;;;;;15.85;9.25;;;;;;;12.07;98.19;101945.94;5089142;28;20130;-71
2023/05/13 02:31:03;;;;;;;11.00;7.30;;;;;;;12.02;98.45;101948.31;5089298;28;20032;-71
2023/05/13 02:33:29;;;;;;;12.27;7.45;;;;;;;12.03;97.83;101946.50;5088057;28;20028;-71
2023/05/13 02:35:54;;;;;;;17.45;9.55;;;;;;;12.00;97.64;101941.53;5089368;28;20028;-71
2023/05/13 02:38:19;;;;;;;17.40;7.50;;;;;;;12.02;97.86;101940.28;5089242;28;20035;-71
2023/05/13 02:40:45;;;;;;;13.63;8.15;;;;;;;11.91;98.24;101929.22;5089258;28;20024;-71
2023/05/13 02:43:10;;;;;;;14.88;8.23;;;;;;;11.96;98.41;101943.69;5087751;28;20041;-71
2023/05/13 02:45:35;;;;;;;12.55;7.63;;;;;;;11.96;98.48;101938.34;5089097;28;20028;-71
2023/05/13 02:48:01;;;;;;;12.82;7.40;;;;;;;11.97;98.03;101944.53;5089099;28;20020;-71
2023/05/13 02:50:26;;;;;;;13.45;7.50;;;;;;;11.98;98.19;101946.22;5089068;28;20066;-71
2023/05/13 02:52:51;;;;;;;12.80;7.32;;;;;;;11.93;99.25;101943.25;5089133;28;20119;-71
2023/05/13 02:55:17;;;;;;;12.43;8.27;;;;;;;11.95;98.87;101938.56;5089036;28;20115;-71
2023/05/13 02:57:42;;;;;;;11.95;7.57;;;;;;;11.81;100.00;101926.72;5089126;28;20065;-71
2023/05/13 03:00:08;;;;;;;13.35;7.88;;;;;;;11.87;99.81;101941.25;5087818;28;20047;-71
2023/05/13 03:02:34;;;;;;;18.45;9.02;;;;;;;11.79;99.82;101937.63;5089017;28;20082;-71
2023/05/13 03:05:00;;;;;;;12.02;7.85;;;;;;;11.81;98.73;101940.91;5089082;28;20052;-71
2023/05/13 03:07:25;;;;;;;13.15;7.88;;;;;;;11.79;98.51;101934.13;5087609;28;20040;-71
2023/05/13 03:09:50;;;;;;;12.52;7.93;;;;;;;11.72;98.58;101931.31;5089081;28;20063;-71
2023/05/13 03:12:16;;;;;;;11.10;7.57;;;;;;;11.70;97.14;101929.81;5088758;28;21037;-71
2023/05/13 03:14:43;;;;;;;16.75;8.57;;;;;;;11.60;98.59;101925.53;5088936;28;20054;-71
2023/05/13 03:17:09;;;;;;;12.70;7.80;;;;;;;11.62;98.14;101926.19;5087529;28;20480;-71
2023/05/13 03:19:36;;;;;;;14.73;7.47;;;;;;;11.62;98.91;101926.19;5089641;28;20047;-71
2023/05/13 03:22:02;;;;;;;11.73;8.15;;;;;;;11.57;98.72;101923.22;5092491;28;20035;-71
2023/05/13 03:24:28;;;;;;;10.02;7.13;;;;;;;11.55;97.93;101927.06;5091337;28;20024;-71
2023/05/13 03:26:53;;;;;;;12.98;8.27;;;;;;;11.53;97.79;101929.94;5092509;28;20077;-71
2023/05/13 03:29:18;;;;;;;13.80;8.50;;;;;;;11.53;98.14;101923.78;5091200;28;20034;-71
2023/05/13 03:31:44;;;;;;;10.85;7.32;;;;;;;11.52;98.81;101936.28;5092550;28;20136;-71
2023/05/13 03:34:09;;;;;;;12.40;7.68;;;;;;;11.54;98.45;101938.78;5092272;28;20019;-71
2023/05/13 03:36:35;;;;;;;13.38;8.60;;;;;;;11.51;98.31;101934.63;5092339;28;20089;-71
2023/05/13 03:39:00;;;;;;;11.82;7.32;;;;;;;11.47;97.79;101941.31;5092242;28;20115;-71
2023/05/13 03:41:27;;;;;;;12.00;6.78;;;;;;;11.51;98.52;101944.47;5092292;28;20119;-71
2023/05/13 03:43:53;;;;;;;16.60;9.50;;;;;;;11.52;99.08;101951.47;5092181;28;20107;-71
2023/05/13 03:46:18;;;;;;;13.10;7.43;;;;;;;11.48;98.71;101948.34;5092210;28;20089;-71
2023/05/13 03:48:44;;;;;;;20.77;9.15;;;;;;;11.46;98.25;101945.00;5092339;28;20044;-71
2023/05/13 03:51:10;;;;;;;12.07;7.75;;;;;;;11.44;98.16;101955.03;5092095;28;20493;-71
2023/05/13 03:53:35;;;;;;;15.02;8.27;;;;;;;11.44;98.07;101943.50;5090632;28;20108;-71
2023/05/13 03:56:00;;;;;;;12.55;7.18;;;;;;;11.41;98.34;101945.53;5091966;28;20135;-71
2023/05/13 03:58:26;;;;;;;12.43;7.03;;;;;;;11.39;98.89;101947.53;5091940;28;20036;-71
2023/05/13 04:00:51;;;;;;;14.52;7.50;;;;;;;11.35;99.24;101951.56;5090258;28;20043;-71
2023/05/13 04:03:17;;;;;;;13.10;8.00;;;;;;;11.24;99.66;101935.94;5090434;28;20028;-71
2023/05/13 04:05:45;;;;;;;14.38;8.32;;;;;;;11.27;99.33;101948.94;5091669;28;20474;-71
2023/05/13 04:08:10;;;;;;;11.75;7.40;;;;;;;11.26;99.94;101946.44;5090329;28;20031;-71
2023/05/13 04:10:36;;;;;;;14.20;9.68;;;;;;;11.28;100.00;101944.44;5091434;28;20055;-71
2023/05/13 04:13:01;;;;;;;12.95;7.72;;;;;;;11.26;100.00;101939.25;5091613;28;20344;-71
2023/05/13 04:15:27;;;;;;;14.98;8.88;;;;;;;11.28;100.00;101944.44;5091470;28;20032;-71
2023/05/13 04:17:52;;;;;;;11.93;8.50;;;;;;;11.27;100.00;101946.28;5090167;28;20036;-71
2023/05/13 04:20:18;;;;;;;14.00;8.38;;;;;;;11.25;100.00;101944.78;5091410;28;20051;-71
2023/05/13 04:22:43;;;;;;;12.15;7.40;;;;;;;11.28;100.00;101950.59;5091266;28;20047;-71
2023/05/13 04:25:09;;;;;;;12.75;8.30;;;;;;;11.28;100.00;101952.44;5091260;28;20032;-71
2023/05/13 04:27:34;;;;;;;14.00;8.70;;;;;;;11.30;100.00;101961.94;5091136;28;20044;-71
2023/05/13 04:30:00;;;;;;;13.60;8.18;;;;;;;11.30;100.00;101959.28;5091063;28;20398;-71
2023/05/13 04:32:25;;;;;;;17.30;9.73;;;;;;;11.30;100.00;101953.94;5090280;28;20085;-71
2023/05/13 04:34:52;;;;;;;12.25;9.07;;;;;;;11.33;100.00;101966.09;5091021;28;20028;-71
2023/05/13 04:37:17;;;;;;;15.40;9.02;;;;;;;11.34;100.00;101955.25;5091047;28;20034;-71
2023/05/13 04:39:46;;;;;;;15.02;8.68;;;;;;;11.39;100.00;101963.56;5091076;28;20020;-71
2023/05/13 04:42:13;;;;;;;14.80;9.27;;;;;;;11.51;100.00;101952.50;5090822;28;20665;-70
2023/05/13 04:44:38;;;;;;;15.13;8.32;;;;;;;12.31;99.51;101965.47;5090897;28;20081;-71
2023/05/13 04:47:04;;;;;;;14.60;7.97;;;;;;;13.03;94.65;101962.25;5090873;28;20066;-71
2023/05/13 04:49:29;;;;;;;17.63;9.48;;;;;;;13.55;91.98;101955.91;5090736;28;20020;-71
2023/05/13 04:51:54;;;;;;;12.63;8.57;;;;;;;13.97;89.65;101956.13;5090760;28;20176;-71
2023/05/13 04:54:20;;;;;;;15.57;9.70;;;;;;;14.42;87.12;101956.72;5089336;28;20031;-71
2023/05/13 04:56:45;;;;;;;16.42;8.88;;;;;;;14.55;86.40;101964.06;5090715;28;20047;-71
2023/05/13 04:59:10;;;;;;;13.65;7.80;;;;;;;14.29;86.11;101962.81;5090772;28;20027;-71
2023/05/13 05:01:36;;;;;;;13.57;8.75;;;;;;;14.17;87.47;101965.19;5089255;28;20898;-71
2023/05/13 05:04:01;;;;;;;13.98;8.80;;;;;;;14.00;86.56;101967.28;5090501;28;20584;-71
2023/05/13 05:06:27;;;;;;;14.82;8.85;;;;;;;13.79;87.19;101964.63;5090503;28;20028;-71
2023/05/13 05:08:52;;;;;;;15.48;9.43;;;;;;;13.50;88.38;101970.91;5090442;28;20471;-71
2023/05/13 05:11:18;;;;;;;16.52;8.30;;;;;;;13.28;89.83;101968.16;5088822;28;20082;-71
2023/05/13 05:13:43;;;;;;;12.90;7.82;;;;;;;13.18;90.69;101972.09;5090471;28;20468;-71
2023/05/13 05:16:08;;;;;;;13.05;8.57;;;;;;;13.08;92.21;101975.09;5088564;28;20036;-71
2023/05/13 05:18:39;;;;;;;13.70;9.75;;;;;;;12.99;91.34;101990.38;5090603;28;20032;-71
2023/05/13 05:21:05;;;;;;;13.23;8.65;;;;;;;12.90;91.63;101983.47;5090242;28;20200;-71
2023/05/13 05:23:31;;;;;;;13.23;7.90;;;;;;;12.80;92.94;101990.94;5090135;28;20123;-71
2023/05/13 05:25:58;;;;;;;14.20;8.18;;;;;;;12.74;94.86;101991.69;5090194;28;20106;-71
2023/05/13 05:28:23;;;;;;;13.27;9.35;;;;;;;12.89;94.26;101993.38;5090015;28;20525;-71
2023/05/13 05:30:49;;;;;;;14.63;9.43;;;;;;;13.10;92.69;101999.84;5089879;28;20036;-71
2023/05/13 05:33:15;;;;;;;14.95;8.80;;;;;;;13.19;92.89;101987.16;5090083;28;20521;-71
2023/05/13 05:35:40;;;;;;;16.05;9.18;;;;;;;13.26;93.17;101996.13;5089881;28;20071;-71
2023/05/13 05:38:07;;;;;;;14.05;9.98;;;;;;;13.30;92.19;101992.91;5088448;28;20468;-71
2023/05/13 05:40:39;;;;;;;15.38;9.20;;;;;;;13.54;92.56;101994.44;5089720;28;20024;-71
2023/05/13 05:43:06;;;;;;;16.60;10.13;;;;;;;13.57;90.73;101996.75;5089668;28;20071;-71
2023/05/13 05:45:33;;;;;;;16.02;9.48;;;;;;;13.58;90.49;101994.91;5088502;28;20430;-71
2023/05/13 05:47:58;;;;;;;15.15;10.57;;;;;;;13.50;91.16;102001.19;5089728;28;20032;-71
2023/05/13 05:50:24;;;;;;;13.48;8.10;;;;;;;13.57;92.71;101999.44;5089781;28;20657;-71
2023/05/13 05:52:49;;;;;;;15.90;9.65;;;;;;;13.47;91.44;102001.59;5089646;28;20032;-71
2023/05/13 05:55:14;;;;;;;19.17;12.00;;;;;;;13.41;91.18;102010.34;5089545;28;20056;-71
2023/05/13 05:57:40;;;;;;;16.67;10.38;;;;;;;13.35;92.39;102009.25;5089606;28;20074;-71
2023/05/13 06:00:06;;;;;;;17.15;10.18;;;;;;;13.31;93.41;102007.16;5088219;28;20086;-71
2023/05/13 06:02:31;;;;;;;17.42;10.85;;;;;;;13.26;93.20;102005.03;5089428;28;20032;-71
2023/05/13 06:04:56;;;;;;;16.83;10.13;;;;;;;13.24;93.02;102009.69;5089628;28;20486;-71
2023/05/13 06:07:22;;;;;;;16.65;10.82;;;;;;;13.27;92.73;102012.03;5089520;28;20032;-71
2023/05/13 06:09:47;;;;;;;19.00;10.48;;;;;;;13.32;92.43;102017.66;5089428;28;20494;-71
2023/05/13 06:12:12;;;;;;;23.60;11.88;;;;;;;13.41;93.16;102015.72;5089069;28;20128;-71
2023/05/13 06:14:38;;;;;;;17.33;10.63;;;;;;;13.48;93.82;102013.94;5088044;28;20110;-71
2023/05/13 06:17:03;;;;;;;16.30;10.95;;;;;;;13.55;92.10;102011.38;5089392;28;20032;-70
2023/05/13 06:19:29;;;;;;;18.17;11.25;;;;;;;13.44;92.92;102001.09;5089839;28;20431;-71
2023/05/13 06:21:54;;;;;;;18.08;10.98;;;;;;;13.46;93.61;102007.94;5089262;28;20077;-71
2023/05/13 06:24:20;;;;;;;17.77;10.73;;;;;;;13.57;93.41;102018.22;5089086;28;20378;-71
2023/05/13 06:26:45;;;;;;;19.45;10.85;;;;;;;13.56;92.72;102013.03;5089043;28;20089;-71
2023/05/13 06:29:10;;;;;;;18.45;12.68;;;;;;;13.55;92.30;102011.38;5089202;28;20062;-71
2023/05/13 06:31:36;;;;;;;17.80;10.70;;;;;;;13.65;92.54;102014.59;5089110;28;20032;-71
2023/05/13 06:34:01;;;;;;;15.43;10.95;;;;;;;13.66;93.63;102018.09;5089238;28;20024;-71
2023/05/13 06:36:27;;;;;;;18.20;11.27;;;;;;;13.67;91.86;102017.88;5088948;28;20390;-71
2023/05/13 06:38:53;;;;;;;16.60;11.30;;;;;;;13.63;92.78;102026.50;5070525;28;20492;-71
2023/05/13 06:41:18;;;;;;;18.00;11.38;;;;;;;13.50;93.55;102013.78;5089142;28;20494;-70
2023/05/13 06:43:45;;;;;;;18.80;12.40;;;;;;;13.49;94.64;102021.00;5089039;28;20111;-70
2023/05/13 06:46:11;;;;;;;40.65;13.88;;;;;;;13.46;93.71;102029.38;5089153;28;20036;-70
2023/05/13 06:48:36;;;;;;;22.40;13.65;;;;;;;13.46;95.85;102029.38;5089228;28;20036;-71
2023/05/13 06:51:03;;;;;;;24.45;12.88;;;;;;;13.50;94.99;102025.31;5088928;28;20039;-70
2023/05/13 06:53:30;;;;;;;20.50;13.05;;;;;;;13.49;96.50;102022.81;5087715;28;20842;-71
2023/05/13 06:55:56;;;;;;;17.95;11.23;;;;;;;13.58;94.76;102032.44;5091840;28;20027;-70
2023/05/13 06:58:21;;;;;;;21.65;11.05;;;;;;;13.57;96.69;102025.38;5091617;28;20039;-70
2023/05/13 07:00:46;;;;;;;21.90;11.90;;;;;;;13.74;94.83;102018.81;5092746;28;20020;-70
2023/05/13 07:03:12;;;;;;;18.48;10.77;;;;;;;13.96;93.56;102019.69;5092796;28;20442;-70
2023/05/13 07:05:37;;;;;;;18.55;11.65;;;;;;;14.11;92.50;102016.91;5092917;28;20028;-70
2023/05/13 07:08:07;;;;;;;18.55;10.48;;;;;;;14.24;91.19;102022.41;5092681;28;20407;-71
2023/05/13 07:10:33;;;;;;;14.25;10.45;;;;;;;14.38;91.10;102027.91;5092492;28;20059;-71
2023/05/13 07:13:02;;;;;;;17.80;9.98;;;;;;;14.43;89.09;102037.03;5092496;28;20441;-71
2023/05/13 07:15:27;;;;;;;16.08;10.50;;;;;;;14.50;91.44;102028.22;5092469;28;20048;-70
2023/05/13 07:17:53;;;;;;;16.85;10.98;;;;;;;14.54;88.11;102024.13;5092501;28;20106;-71
2023/05/13 07:20:21;;;;;;;17.70;10.65;;;;;;;14.66;89.41;102031.47;5092507;28;20044;-71
2023/05/13 07:22:50;;;;;;;16.58;10.80;;;;;;;14.79;89.06;102030.75;5092326;28;20028;-71
2023/05/13 07:25:16;;;;;;;15.70;9.70;;;;;;;14.77;87.37;102031.97;5092460;28;20046;-71
2023/05/13 07:27:42;;;;;;;16.38;10.10;;;;;;;14.79;88.77;102020.00;5092363;28;20029;-70
2023/05/13 07:30:09;;;;;;;16.88;10.20;;;;;;;14.93;89.07;102022.78;5092205;28;20376;-71
2023/05/13 07:32:35;;;;;;;16.35;10.05;;;;;;;15.08;86.40;102035.06;5092165;28;20028;-71
2023/05/13 07:35:01;;;;;;;13.63;9.10;;;;;;;15.18;86.47;102033.91;5092173;28;20165;-71
2023/05/13 07:37:26;;;;;;;14.88;9.18;;;;;;;15.07;83.44;102035.28;5090658;28;20045;-71
2023/05/13 07:39:52;;;;;;;15.02;10.20;;;;;;;14.95;85.16;102036.84;5090692;28;20093;-71
2023/05/13 07:42:18;;;;;;;16.40;10.18;;;;;;;14.94;85.30;102032.53;5091974;28;20355;-70
2023/05/13 07:44:43;;;;;;;17.27;10.63;;;;;;;14.98;86.35;102039.13;5091926;28;20461;-71
2023/05/13 07:47:08;;;;;;;20.20;11.75;;;;;;;15.06;86.63;102033.59;5091515;28;20531;-71
2023/05/13 07:49:34;;;;;;;16.65;10.27;;;;;;;15.09;85.64;102031.38;5092120;28;20040;-71
2023/05/13 07:52:00;;;;;;;20.00;10.48;;;;;;;15.16;85.07;102031.41;5091677;28;20031;-71
2023/05/13 07:54:25;;;;;;;17.40;12.02;;;;;;;15.23;86.38;102034.13;5091805;28;20028;-71
2023/05/13 07:56:50;;;;;;;15.05;10.40;;;;;;;15.27;85.52;102032.69;5090583;28;20024;-71
2023/05/13 07:59:17;;;;;;;17.33;10.88;;;;;;;15.38;84.71;102039.38;5091669;28;20077;-71
2023/05/13 08:01:42;;;;;;;16.90;11.02;;;;;;;15.55;84.05;102038.00;5091576;28;20035;-71
2023/05/13 08:04:08;;;;;;;15.20;10.75;;;;;;;15.71;83.62;102040.38;5091437;28;20029;-71
2023/05/13 08:06:33;;;;;;;14.70;10.10;;;;;;;15.85;83.25;102035.03;5090365;28;20059;-71
2023/05/13 08:09:00;;;;;;;14.23;9.70;;;;;;;16.08;83.49;102038.19;5091534;28;20455;-71
2023/05/13 08:11:25;;;;;;;14.23;10.02;;;;;;;17.48;78.71;102035.41;5091418;28;20087;-71
2023/05/13 08:13:51;;;;;;;15.70;10.15;;;;;;;19.56;71.28;102037.06;5089911;28;20434;-71
2023/05/13 08:16:16;;;;;;;15.88;9.68;;;;;;;21.14;61.77;102045.69;5091229;28;20036;-72
2023/05/13 08:18:41;;;;;;;15.90;9.70;;;;;;;21.78;60.82;102042.94;5090272;28;20055;-72
2023/05/13 08:21:07;;;;;;;13.45;8.80;;;;;;;23.15;56.03;102042.75;5090837;28;20032;-73
2023/05/13 08:23:35;;;;;;;13.45;9.40;;;;;;;24.12;51.51;102046.59;5090695;28;20031;-72
2023/05/13 08:26:00;;;;;;;14.02;9.05;;;;;;;24.33;49.94;102042.13;5091025;28;20085;-72
2023/05/13 08:28:26;;;;;;;15.98;9.98;;;;;;;25.14;48.11;102041.88;5090930;28;20032;-72
2023/05/13 08:30:51;;;;;;;14.82;8.38;;;;;;;25.41;47.38;102048.31;5091057;28;20043;-72
2023/05/13 08:33:16;;;;;;;16.25;9.55;;;;;;;25.43;46.74;102037.94;5091019;28;20555;-72
2023/05/13 08:35:42;;;;;;;13.88;8.65;;;;;;;25.36;47.19;102040.91;5091203;28;20039;-72
2023/05/13 08:38:07;;;;;;;15.52;9.10;;;;;;;25.84;46.12;102038.91;5091065;28;20514;-72
2023/05/13 08:40:33;;;;;;;13.50;9.00;;;;;;;26.32;44.19;102034.00;5090641;28;20036;-72
2023/05/13 08:43:03;;;;;;;13.10;8.90;;;;;;;26.68;44.03;102025.81;5088938;28;20507;-72
2023/05/13 08:45:30;;;;;;;13.85;8.70;;;;;;;26.38;44.65;102023.88;5088861;28;20124;-72
2023/05/13 08:47:58;;;;;;;12.48;9.25;;;;;;;26.75;44.88;102026.34;5088803;28;20459;-72
2023/05/13 08:50:24;;;;;;;14.43;8.45;;;;;;;26.78;42.53;102038.66;5088766;28;20031;-72
2023/05/13 08:52:52;;;;;;;17.77;9.63;;;;;;;25.93;44.29;102029.06;5088855;28;20027;-72
2023/05/13 08:55:18;;;;;;;16.73;10.02;;;;;;;24.16;49.04;102025.09;5089226;28;20032;-72
2023/05/13 08:57:44;;;;;;;11.90;8.23;;;;;;;22.87;51.21;102024.63;5088325;28;20039;-72
2023/05/13 09:00:09;;;;;;;16.23;9.05;;;;;;;22.00;56.68;102029.47;5089546;28;20031;-72
2023/05/13 09:02:35;;;;;;;12.25;9.00;;;;;;;21.38;58.19;102026.69;5089670;28;20028;-72
2023/05/13 09:05:07;;;;;;;13.10;8.70;;;;;;;20.81;60.01;102024.63;5089732;28;20070;-72
2023/05/13 09:07:34;;;;;;;15.40;9.82;;;;;;;20.45;60.86;102026.44;5089796;28;20412;-71
2023/05/13 09:09:59;;;;;;;19.00;10.45;;;;;;;20.20;63.61;102020.38;5090044;28;20024;-71
2023/05/13 09:12:45;;;;;;;14.68;8.85;;;;;;;20.21;63.98;102019.34;5089974;28;20137;-72
2023/05/13 09:15:14;;;;;;;13.45;8.48;;;;;;;20.03;62.65;102021.06;5089985;28;20034;-72
2023/05/13 09:17:41;;;;;;;11.13;8.05;;;;;;;20.00;64.16;102013.41;5089659;28;20035;-72
2023/05/13 09:20:12;;;;;;;14.70;9.45;;;;;;;19.96;64.31;102023.03;5071922;28;20028;-72
2023/05/13 09:22:50;;;;;;;15.37;11.00;;;;;;;19.95;63.22;102017.84;5089790;28;20088;-71
2023/05/13 09:25:17;;;;;;;16.40;10.93;;;;;;;19.83;67.82;102018.66;5089922;28;20027;-72
2023/05/13 09:27:50;;;;;;;23.25;10.80;;;;;;;19.89;67.38;102020.44;5089853;28;20081;-71
2023/05/13 09:30:15;;;;;;;13.52;9.52;;;;;;;19.92;66.08;102016.44;5089807;28;20068;-71
2023/05/13 09:32:41;;;;;;;13.68;9.98;;;;;;;19.78;65.95;101998.72;5089821;28;20515;-72
2023/05/13 09:35:15;;;;;;;17.65;10.63;;;;;;;19.82;66.18;102010.75;5089761;28;20059;-72
2023/05/13 09:37:50;;;;;;;12.63;9.18;;;;;;;19.83;68.68;102005.13;5089809;28;20491;-72
2023/05/13 09:40:16;;;;;;;14.57;9.75;;;;;;;19.90;67.60;102007.72;5089713;28;20395;-71
2023/05/13 09:42:45;;;;;;;14.50;10.80;;;;;;;19.92;66.24;102014.56;5089550;28;20150;-71
2023/05/13 09:45:12;;;;;;;12.63;8.68;;;;;;;20.05;67.61;102007.28;5089560;28;20024;-72
2023/05/13 09:47:39;;;;;;;13.20;8.98;;;;;;;20.09;67.04;102005.75;5089454;28;20386;-71
2023/05/13 09:50:05;;;;;;;11.25;8.23;;;;;;;20.02;64.90;102005.88;5089687;28;20031;-71
2023/05/13 09:52:32;;;;;;;12.32;8.15;;;;;;;20.01;63.71;102000.69;5089612;28;20028;-71
2023/05/13 09:54:58;;;;;;;15.23;10.48;;;;;;;20.00;68.66;102004.47;5089433;28;20031;-71
2023/05/13 09:57:27;;;;;;;16.60;9.65;;;;;;;20.12;64.42;102005.28;5089456;28;20023;-71
2023/05/13 09:59:59;;;;;;;13.30;8.75;;;;;;;20.11;64.11;102001.75;5089357;28;20506;-72
2023/05/13 10:02:25;;;;;;;12.35;7.68;;;;;;;20.17;64.17;101999.19;5089258;28;20047;-72
2023/05/13 10:04:55;;;;;;;12.93;8.57;;;;;;;20.23;64.25;101992.84;5089326;28;20058;-72
2023/05/13 10:07:24;;;;;;;14.48;9.18;;;;;;;20.37;62.24;101999.69;5089287;28;20027;-72
2023/05/13 10:10:02;;;;;;;12.93;7.90;;;;;;;20.50;59.91;101991.31;5089331;28;20046;-72
2023/05/13 10:12:30;;;;;;;11.48;7.80;;;;;;;20.43;60.07;101987.09;5089040;28;20051;-72
2023/05/13 10:14:57;;;;;;;10.10;7.93;;;;;;;20.58;57.84;101988.28;5089108;28;20454;-72
2023/05/13 10:17:24;;;;;;;11.27;6.63;;;;;;;20.63;58.86;101986.78;5088928;28;20024;-72
2023/05/13 10:19:51;;;;;;;10.95;7.05;;;;;;;20.74;61.28;101980.50;5089126;28;20379;-72
2023/05/13 10:22:31;;;;;;;8.73;6.38;;;;;;;20.83;59.71;101978.25;5089179;28;20189;-72
2023/05/13 10:24:58;;;;;;;8.45;5.50;;;;;;;20.92;55.30;101982.28;5088529;28;20056;-72
2023/05/13 10:27:33;;;;;;;12.07;6.20;;;;;;;20.99;53.59;101980.25;5089038;28;20038;-73
2023/05/13 10:30:00;;;;;;;7.05;4.95;;;;;;;20.94;50.75;101989.09;5088364;28;20414;-73
2023/05/13 10:32:28;;;;;;;7.97;5.18;;;;;;;20.91;52.67;101980.63;5089083;28;20058;-72
2023/05/13 10:35:01;;;;;;;9.93;5.38;;;;;;;20.96;51.64;101970.72;5089363;28;20371;-72
2023/05/13 10:37:42;;;;;;;6.10;4.75;;;;;;;21.05;53.08;101986.63;5088896;28;20024;-72
2023/05/13 10:40:26;;;;;;;10.10;5.82;;;;;;;21.09;52.66;101971.50;5089245;28;20057;-72
2023/05/13 10:43:20;;;;;;;8.20;5.50;;;;;;;21.08;52.60;101975.28;5088804;28;20020;-73
2023/05/13 10:46:00;;;;;;;10.77;5.05;;;;;;;21.10;50.10;101967.72;5088769;28;20592;-72
2023/05/13 10:48:36;;;;;;;8.85;5.55;;;;;;;21.07;53.32;101966.31;5088616;28;20035;-71
2023/05/13 10:51:06;;;;;;;10.18;5.72;;;;;;;21.23;49.66;101975.59;5088586;28;20387;-72
2023/05/13 10:53:36;;;;;;;7.10;5.72;;;;;;;21.27;48.73;101963.19;5088794;28;20028;-72
2023/05/13 10:56:06;;;;;;;8.05;5.40;;;;;;;21.32;50.93;101963.28;5088681;28;20020;-71
2023/05/13 10:58:33;;;;;;;10.57;4.82;;;;;;;21.44;50.76;101966.81;5088754;28;20146;-72
2023/05/13 11:01:11;;;;;;;8.90;4.60;;;;;;;21.56;49.22;101960.50;5088678;28;20020;-72
2023/05/13 11:03:39;;;;;;;7.70;4.63;;;;;;;21.69;48.69;101957.50;5088569;28;20126;-72
2023/05/13 11:06:22;;;;;;;6.13;4.63;;;;;;;21.72;45.27;101961.59;5088642;28;20501;-73
2023/05/13 11:08:50;;;;;;;5.20;4.03;;;;;;;21.64;44.13;101958.25;5088558;28;20110;-72
2023/05/13 11:11:23;;;;;;;6.85;3.95;;;;;;;21.77;46.56;101958.97;5088144;28;20050;-72
2023/05/13 11:13:50;;;;;;;5.90;4.68;;;;;;;21.85;43.86;101964.88;5088490;28;20040;-72